createdAt,value
2019-02-26T00:00:14.406Z,-2.35
2019-02-26T00:02:46.555Z,-2.41
2019-02-26T00:05:13.106Z,-2.35
2019-02-26T00:07:44.416Z,-2.31
2019-02-26T00:10:11.513Z,-2.37
2019-02-26T00:12:40.529Z,-2.44
2019-02-26T00:15:10.467Z,-2.36
2019-02-26T00:17:41.193Z,-2.34
2019-02-26T00:20:10.925Z,-2.38
2019-02-26T00:22:38.970Z,-2.36
2019-02-26T00:25:08.483Z,-2.47
2019-02-26T00:27:36.543Z,-2.45
2019-02-26T00:30:08.677Z,-2.46
2019-02-26T00:32:36.604Z,-2.42
2019-02-26T00:35:04.872Z,-2.45
2019-02-26T00:37:33.955Z,-2.40
2019-02-26T00:40:02.972Z,-2.50
2019-02-26T00:42:34.283Z,-2.47
2019-02-26T00:45:03.332Z,-2.39
2019-02-26T00:47:33.906Z,-2.44
2019-02-26T00:50:00.253Z,-2.53
2019-02-26T00:52:30.401Z,-2.48
2019-02-26T00:55:00.015Z,-2.57
2019-02-26T00:57:29.446Z,-2.52
2019-02-26T00:59:57.011Z,-2.49
2019-02-26T01:02:26.183Z,-2.50
2019-02-26T01:04:55.215Z,-2.56
2019-02-26T01:07:25.962Z,-2.65
2019-02-26T01:09:54.690Z,-2.63
2019-02-26T01:12:22.523Z,-2.60
2019-02-26T01:14:51.682Z,-2.62
2019-02-26T01:17:20.804Z,-2.62
2019-02-26T01:19:49.766Z,-2.61
2019-02-26T01:22:18.879Z,-2.69
2019-02-26T01:24:49.692Z,-2.79
2019-02-26T01:27:17.219Z,-2.77
2019-02-26T01:29:47.348Z,-2.75
2019-02-26T01:32:17.548Z,-2.81
2019-02-26T01:34:45.006Z,-2.86
2019-02-26T01:37:13.570Z,-2.88
2019-02-26T01:39:44.676Z,-2.94
2019-02-26T01:42:13.364Z,-2.97
2019-02-26T01:44:42.129Z,-2.93
2019-02-26T01:47:10.124Z,-2.92
2019-02-26T01:49:39.843Z,-2.92
2019-02-26T01:52:09.044Z,-2.95
2019-02-26T02:11:23.806Z,-3.12
2019-02-26T02:13:51.625Z,-3.04
2019-02-26T02:16:22.124Z,-3.07
2019-02-26T02:18:51.362Z,-3.07
2019-02-26T02:21:19.585Z,-3.18
2019-02-26T02:23:49.219Z,-3.09
2019-02-26T02:26:17.783Z,-3.07
2019-02-26T02:28:47.203Z,-3.12
2019-02-26T02:31:16.610Z,-3.05
2019-02-26T02:33:45.709Z,-3.08
2019-02-26T02:36:15.518Z,-3.14
2019-02-26T02:38:44.078Z,-3.16
2019-02-26T02:41:13.205Z,-3.10
2019-02-26T02:43:42.316Z,-3.05
2019-02-26T02:46:11.388Z,-3.05
2019-02-26T02:48:40.483Z,-3.10
2019-02-26T02:51:13.167Z,-3.10
2019-02-26T02:53:38.782Z,-3.12
2019-02-26T02:56:10.530Z,-3.10
2019-02-26T02:58:38.618Z,-3.07
2019-02-26T03:01:06.184Z,-3.17
2019-02-26T03:03:35.262Z,-3.11
2019-02-26T03:06:06.881Z,-3.14
2019-02-26T03:08:33.679Z,-3.20
2019-02-26T03:11:02.792Z,-3.17
2019-02-26T03:13:32.171Z,-3.22
2019-02-26T03:16:01.662Z,-3.22
2019-02-26T03:18:30.344Z,-3.19
2019-02-26T03:21:01.849Z,-3.25
2019-02-26T03:23:28.640Z,-3.23
2019-02-26T03:25:57.544Z,-3.30
2019-02-26T03:28:27.296Z,-3.39
2019-02-26T03:30:56.340Z,-3.35
2019-02-26T03:33:25.502Z,-3.24
2019-02-26T03:35:54.591Z,-3.29
2019-02-26T03:38:26.264Z,-3.28
2019-02-26T03:40:54.696Z,-3.33
2019-02-26T03:43:21.858Z,-3.32
2019-02-26T03:45:51.828Z,-3.30
2019-02-26T03:48:20.834Z,-3.32
2019-02-26T03:50:50.954Z,-3.25
2019-02-26T03:53:20.048Z,-3.36
2019-02-26T03:55:49.220Z,-3.36
2019-02-26T03:58:18.314Z,-3.27
2019-02-26T04:00:48.127Z,-3.34
2019-02-26T04:03:17.629Z,-3.28
2019-02-26T04:05:46.284Z,-3.28
2019-02-26T04:08:16.565Z,-3.32
2019-02-26T04:10:45.642Z,-3.31
2019-02-26T04:13:13.676Z,-3.23
2019-02-26T04:15:42.741Z,-3.30
2019-02-26T04:18:11.828Z,-3.31
2019-02-26T04:37:35.232Z,-3.35
2019-02-26T04:40:14.921Z,-3.37
2019-02-26T04:45:05.095Z,-3.30
2019-02-26T04:47:34.026Z,-3.39
2019-02-26T04:50:05.562Z,-3.60
2019-02-26T04:52:33.190Z,-3.36
2019-02-26T04:55:01.228Z,-3.35
2019-02-26T05:14:20.814Z,-3.37
2019-02-26T05:16:44.917Z,-3.36
2019-02-26T05:19:16.386Z,-3.28
2019-02-26T05:21:42.936Z,-3.35
2019-02-26T05:24:14.551Z,-3.31
2019-02-26T05:26:41.086Z,-3.27
2019-02-26T05:29:13.348Z,-3.22
2019-02-26T05:31:43.261Z,-3.20
2019-02-26T05:34:12.422Z,-3.20
2019-02-26T05:53:27.267Z,-2.58
2019-02-26T05:55:56.392Z,-2.80
2019-02-26T05:58:25.456Z,-2.86
2019-02-26T06:00:54.557Z,-3.01
2019-02-26T06:03:24.391Z,-3.08
2019-02-26T06:05:55.492Z,-3.00
2019-02-26T06:08:25.654Z,-3.02
2019-02-26T06:10:51.892Z,-2.91
2019-02-26T06:13:20.949Z,-2.89
2019-02-26T06:15:51.408Z,-2.88
2019-02-26T06:18:20.938Z,-2.80
2019-02-26T06:20:48.670Z,-2.53
2019-02-26T06:23:17.373Z,-2.35
2019-02-26T06:25:46.472Z,-2.43
2019-02-26T06:28:18.036Z,-2.48
2019-02-26T06:30:44.857Z,-2.47
2019-02-26T06:33:16.333Z,-2.46
2019-02-26T06:35:43.460Z,-2.43
2019-02-26T06:38:12.571Z,-2.28
2019-02-26T06:40:41.990Z,-2.32
2019-02-26T06:43:10.620Z,-2.22
2019-02-26T06:45:41.127Z,-2.19
2019-02-26T06:48:12.540Z,-2.20
2019-02-26T06:50:38.646Z,-2.13
2019-02-26T06:53:09.156Z,-2.14
2019-02-26T06:55:36.512Z,-2.12
2019-02-26T06:58:16.369Z,-1.94
2019-02-26T07:00:46.382Z,-1.74
2019-02-26T07:03:15.083Z,-1.73
2019-02-26T07:05:46.491Z,-1.74
2019-02-26T07:08:13.352Z,-1.70
2019-02-26T07:10:42.552Z,-1.63
2019-02-26T07:13:12.301Z,-1.60
2019-02-26T07:15:43.013Z,-1.45
2019-02-26T07:18:13.750Z,-1.31
2019-02-26T07:20:46.526Z,-1.29
2019-02-26T07:23:10.663Z,-1.24
2019-02-26T07:25:39.404Z,-1.11
2019-02-26T07:28:07.671Z,-1.16
2019-02-26T07:30:37.573Z,-1.12
2019-02-26T07:33:07.692Z,-1.02
2019-02-26T07:35:37.287Z,-0.92
2019-02-26T07:38:05.100Z,-0.82
2019-02-26T07:40:35.915Z,-0.79
2019-02-26T07:43:06.949Z,-0.64
2019-02-26T07:45:32.656Z,-0.53
2019-02-26T07:48:01.748Z,-0.74
2019-02-26T07:50:34.132Z,-0.90
2019-02-26T07:53:00.037Z,-0.81
2019-02-26T07:55:32.229Z,-0.65
2019-02-26T07:57:58.368Z,-0.38
2019-02-26T08:00:27.499Z,-0.29
2019-02-26T08:03:00.186Z,-0.01
2019-02-26T08:05:28.960Z,0.14
2019-02-26T08:07:57.821Z,0.34
2019-02-26T08:10:26.883Z,0.41
2019-02-26T08:12:56.711Z,0.50
2019-02-26T08:15:25.208Z,0.50
2019-02-26T08:17:57.764Z,0.29
2019-02-26T08:20:23.515Z,0.36
2019-02-26T08:22:54.247Z,0.78
2019-02-26T08:25:22.089Z,0.85
2019-02-26T08:27:52.150Z,1.11
2019-02-26T08:30:23.348Z,1.11
2019-02-26T08:32:53.427Z,1.28
2019-02-26T08:35:19.085Z,1.04
2019-02-26T08:37:47.993Z,1.10
2019-02-26T08:40:16.986Z,1.07
2019-02-26T08:42:46.139Z,1.15
2019-02-26T08:45:17.790Z,1.14
2019-02-26T08:47:46.083Z,0.88
2019-02-26T08:50:15.199Z,0.94
2019-02-26T08:52:47.072Z,1.40
2019-02-26T08:55:15.649Z,1.10
2019-02-26T08:57:43.107Z,1.32
2019-02-26T09:00:14.967Z,1.38
2019-02-26T09:02:46.012Z,1.45
2019-02-26T09:05:13.352Z,1.53
2019-02-26T09:07:43.344Z,1.48
2019-02-26T09:10:13.154Z,1.78
2019-02-26T09:12:43.576Z,1.73
2019-02-26T09:15:12.612Z,1.98
2019-02-26T09:17:42.170Z,2.08
2019-02-26T09:20:14.668Z,2.04
2019-02-26T09:22:45.710Z,2.14
2019-02-26T09:25:12.164Z,2.15
2019-02-26T09:27:43.037Z,2.06
2019-02-26T09:30:13.996Z,2.07
2019-02-26T09:32:44.734Z,2.18
2019-02-26T09:35:12.944Z,2.29
2019-02-26T09:37:42.881Z,2.64
2019-02-26T09:40:12.692Z,2.87
2019-02-26T09:42:43.745Z,2.97
2019-02-26T09:45:15.410Z,2.96
2019-02-26T09:47:44.797Z,3.38
2019-02-26T09:50:12.923Z,3.26
2019-02-26T09:52:41.664Z,3.17
2019-02-26T09:55:11.507Z,3.36
2019-02-26T09:57:40.659Z,3.82
2019-02-26T10:00:14.594Z,4.17
2019-02-26T10:02:44.721Z,4.17
2019-02-26T10:05:13.984Z,4.06
2019-02-26T10:07:41.459Z,3.93
2019-02-26T10:10:14.131Z,4.60
2019-02-26T10:12:41.839Z,4.61
2019-02-26T10:15:11.675Z,4.82
2019-02-26T10:17:42.748Z,4.53
2019-02-26T10:20:13.201Z,4.57
2019-02-26T10:22:42.291Z,4.46
2019-02-26T10:25:11.709Z,4.28
2019-02-26T10:27:43.081Z,4.45
2019-02-26T10:30:14.362Z,4.89
2019-02-26T10:32:44.052Z,5.00
2019-02-26T10:35:15.633Z,4.91
2019-02-26T10:37:44.942Z,5.03
2019-02-26T10:40:15.150Z,5.02
2019-02-26T10:42:43.224Z,5.12
2019-02-26T10:45:12.934Z,5.50
2019-02-26T10:47:42.069Z,5.29
2019-02-26T10:50:16.154Z,4.82
2019-02-26T10:52:43.516Z,4.79
2019-02-26T10:55:15.121Z,4.65
2019-02-26T10:57:42.120Z,4.93
2019-02-26T11:00:15.453Z,5.06
2019-02-26T11:02:46.157Z,5.18
2019-02-26T11:25:22.420Z,5.95
2019-02-26T11:27:49.487Z,6.10
2019-02-26T11:30:21.140Z,5.71
2019-02-26T11:32:48.301Z,5.92
2019-02-26T11:35:19.556Z,6.31
2019-02-26T11:37:47.290Z,6.73
2019-02-26T11:40:17.417Z,7.32
2019-02-26T11:42:46.776Z,7.45
2019-02-26T11:45:17.480Z,7.78
2019-02-26T11:47:45.256Z,7.29
2019-02-26T11:50:15.952Z,7.07
2019-02-26T11:52:45.054Z,6.97
2019-02-26T11:55:14.708Z,6.82
2019-02-26T11:57:45.678Z,6.79
2019-02-26T12:00:24.339Z,6.80
2019-02-26T12:02:46.019Z,6.56
2019-02-26T12:05:15.404Z,6.23
2019-02-26T12:07:46.214Z,6.08
2019-02-26T12:10:14.708Z,6.09
2019-02-26T12:12:43.156Z,6.20
2019-02-26T12:15:15.189Z,5.76
2019-02-26T12:17:42.365Z,5.60
2019-02-26T12:20:14.756Z,5.88
2019-02-26T12:22:44.732Z,5.99
2019-02-26T12:25:12.107Z,5.76
2019-02-26T12:27:43.242Z,6.18
2019-02-26T12:30:15.843Z,6.09
2019-02-26T12:32:46.816Z,6.15
2019-02-26T12:35:14.766Z,6.07
2019-02-26T12:37:41.819Z,5.80
2019-02-26T12:40:13.016Z,5.75
2019-02-26T12:42:40.717Z,5.59
2019-02-26T12:45:13.674Z,5.60
2019-02-26T12:47:42.505Z,5.71
2019-02-26T12:50:11.635Z,5.76
2019-02-26T12:52:42.305Z,5.70
2019-02-26T12:55:10.486Z,5.61
2019-02-26T12:57:39.012Z,5.61
2019-02-26T13:00:11.306Z,5.64
2019-02-26T13:02:42.869Z,5.91
2019-02-26T13:05:10.385Z,5.91
2019-02-26T13:07:38.595Z,5.69
2019-02-26T13:10:09.527Z,5.58
2019-02-26T13:12:38.455Z,5.59
2019-02-26T13:15:10.151Z,5.53
2019-02-26T13:17:39.228Z,5.54
2019-02-26T13:20:11.225Z,5.52
2019-02-26T13:22:45.593Z,5.43
2019-02-26T13:25:14.959Z,5.31
2019-02-26T13:27:39.718Z,5.28
2019-02-26T13:30:09.287Z,5.27
2019-02-26T13:32:55.405Z,5.31
2019-02-26T13:35:08.228Z,5.35
2019-02-26T13:37:41.930Z,5.30
2019-02-26T13:40:08.505Z,5.41
2019-02-26T13:42:37.479Z,5.36
2019-02-26T13:45:07.965Z,5.27
2019-02-26T13:47:37.120Z,5.12
2019-02-26T13:50:07.861Z,5.15
2019-02-26T13:52:36.924Z,4.98
2019-02-26T13:55:06.765Z,5.11
2019-02-26T13:57:35.808Z,5.07
2019-02-26T14:00:05.708Z,5.02
2019-02-26T14:02:34.824Z,5.02
2019-02-26T14:05:04.004Z,4.88
2019-02-26T14:07:34.799Z,4.80
2019-02-26T14:10:02.466Z,4.77
2019-02-26T14:12:31.454Z,4.77
2019-02-26T14:15:00.600Z,4.81
2019-02-26T14:17:29.745Z,4.72
2019-02-26T14:19:58.896Z,4.64
2019-02-26T14:22:28.047Z,4.57
2019-02-26T14:24:57.111Z,4.57
2019-02-26T14:27:26.204Z,4.57
2019-02-26T14:29:55.413Z,4.62
2019-02-26T14:32:24.473Z,4.58
2019-02-26T14:34:53.571Z,4.55
2019-02-26T14:37:22.807Z,4.58
2019-02-26T14:39:51.871Z,4.56
2019-02-26T14:42:21.659Z,4.48
2019-02-26T14:44:50.850Z,4.43
2019-02-26T14:47:19.975Z,4.56
2019-02-26T14:49:49.083Z,4.59
2019-02-26T14:52:18.264Z,4.78
2019-02-26T14:54:47.397Z,4.92
2019-02-26T14:57:16.386Z,5.16
2019-02-26T14:59:45.268Z,5.18
2019-02-26T15:02:14.402Z,4.92
2019-02-26T15:28:09.936Z,4.45
2019-02-26T15:47:23.973Z,4.28
2019-02-26T15:49:53.277Z,4.28
2019-02-26T15:52:22.742Z,4.32
2019-02-26T15:54:51.882Z,4.12
2019-02-26T15:57:21.024Z,4.17
2019-02-26T15:59:51.302Z,4.15
2019-02-26T16:02:19.311Z,4.15
2019-02-26T16:04:48.412Z,4.15
2019-02-26T16:07:17.386Z,4.11
2019-02-26T16:09:46.413Z,4.05
2019-02-26T16:12:15.593Z,3.99
2019-02-26T16:14:45.279Z,3.99
2019-02-26T16:17:14.495Z,3.82
2019-02-26T16:19:43.803Z,3.95
2019-02-26T16:22:12.994Z,3.90
2019-02-26T16:24:41.980Z,3.88
2019-02-26T16:27:11.299Z,3.92
2019-02-26T16:29:40.308Z,3.87
2019-02-26T16:32:09.488Z,3.88
2019-02-26T16:34:38.494Z,3.85
2019-02-26T16:37:07.973Z,3.90
2019-02-26T16:39:36.860Z,3.93
2019-02-26T16:42:06.196Z,3.88
2019-02-26T16:44:35.247Z,3.99
2019-02-26T16:47:05.321Z,3.96
2019-02-26T16:49:33.986Z,3.88
2019-02-26T16:52:03.053Z,3.89
2019-02-26T16:54:32.179Z,3.85
2019-02-26T16:57:01.283Z,3.93
2019-02-26T16:59:30.324Z,3.94
2019-02-26T17:01:59.489Z,3.91
2019-02-26T17:04:28.388Z,3.89
2019-02-26T17:06:57.461Z,3.82
2019-02-26T17:09:26.537Z,3.83
2019-02-26T17:11:55.665Z,3.90
2019-02-26T17:14:24.755Z,3.96
2019-02-26T17:16:53.900Z,3.86
2019-02-26T17:19:23.117Z,3.81
2019-02-26T17:21:52.205Z,3.77
2019-02-26T17:41:06.674Z,3.56
2019-02-26T17:43:35.691Z,3.58
2019-02-26T17:46:04.927Z,3.54
2019-02-26T17:48:43.266Z,3.61
2019-02-26T17:51:03.095Z,3.63
2019-02-26T17:53:32.187Z,3.61
2019-02-26T17:56:01.294Z,3.63
2019-02-26T17:58:31.004Z,3.74
2019-02-26T18:01:00.081Z,3.62
2019-02-26T18:03:29.146Z,3.59
2019-02-26T18:05:58.381Z,3.54
2019-02-26T18:08:27.454Z,3.55
2019-02-26T18:10:56.562Z,3.58
2019-02-26T18:13:25.787Z,3.53
2019-02-26T18:15:56.869Z,3.49
2019-02-26T18:18:24.051Z,3.48
2019-02-26T18:20:53.357Z,3.53
2019-02-26T18:23:22.423Z,3.45
2019-02-26T18:25:51.465Z,3.40
2019-02-26T18:28:20.621Z,3.41
2019-02-26T18:30:49.737Z,3.38
2019-02-26T18:33:18.845Z,3.39
2019-02-26T18:35:48.660Z,3.44
2019-02-26T18:38:18.080Z,3.33
2019-02-26T18:40:46.922Z,3.36
2019-02-26T18:43:16.075Z,3.36
2019-02-26T18:45:45.214Z,3.34
2019-02-26T18:48:15.093Z,3.27
2019-02-26T18:50:43.561Z,3.26
2019-02-26T18:53:14.114Z,3.22
2019-02-26T18:55:43.807Z,3.20
2019-02-26T18:58:10.923Z,3.22
2019-02-26T19:00:40.013Z,3.20
2019-02-26T19:03:09.553Z,3.16
2019-02-26T19:05:38.516Z,3.22
2019-02-26T19:08:07.608Z,3.18
2019-02-26T19:27:42.976Z,3.17
2019-02-26T19:30:14.275Z,3.17
2019-02-26T19:32:47.506Z,3.14
2019-02-26T19:35:12.713Z,3.24
2019-02-26T19:54:26.885Z,3.18
2019-02-26T19:56:57.032Z,3.19
2019-02-26T19:59:26.929Z,3.15
2019-02-26T20:01:56.610Z,3.16
2019-02-26T20:04:23.591Z,3.14
2019-02-26T20:06:52.674Z,3.10
2019-02-26T20:09:21.793Z,3.04
2019-02-26T20:11:50.900Z,2.97
2019-02-26T20:14:21.655Z,2.94
2019-02-26T20:16:49.176Z,2.93
2019-02-26T20:19:18.239Z,2.91
2019-02-26T20:21:51.465Z,2.91
2019-02-26T20:24:17.227Z,2.90
2019-02-26T20:26:47.615Z,2.99
2019-02-26T20:29:15.359Z,3.01
2019-02-26T20:31:44.382Z,3.02
2019-02-26T20:34:13.367Z,2.95
2019-02-26T20:36:42.475Z,2.87
2019-02-26T20:39:11.603Z,2.86
2019-02-26T20:41:40.740Z,2.79
2019-02-26T20:44:10.071Z,2.85
2019-02-26T20:46:39.116Z,2.81
2019-02-26T20:49:09.870Z,2.73
2019-02-26T20:51:37.791Z,2.76
2019-02-26T20:54:06.959Z,2.77
2019-02-26T20:56:36.267Z,2.78
2019-02-26T20:59:05.315Z,2.80
2019-02-26T21:01:34.354Z,2.75
2019-02-26T21:20:49.418Z,2.54
2019-02-26T21:23:18.508Z,2.51
2019-02-26T21:25:48.167Z,2.53
2019-02-26T21:28:18.456Z,2.54
2019-02-26T21:30:47.539Z,2.51
2019-02-26T21:33:16.571Z,2.57
2019-02-26T21:35:45.661Z,2.61
2019-02-26T21:38:14.716Z,2.60
2019-02-26T21:40:43.727Z,2.67
2019-02-26T21:43:12.844Z,2.71
2019-02-26T21:45:44.468Z,2.68
2019-02-26T21:48:11.853Z,2.64
2019-02-26T21:50:40.964Z,2.68
2019-02-26T21:53:10.116Z,2.66
2019-02-26T21:55:44.406Z,2.64
2019-02-26T21:58:08.652Z,2.64
2019-02-26T22:00:39.110Z,2.66
2019-02-26T22:03:06.900Z,2.67
2019-02-26T22:05:37.899Z,2.70
2019-02-26T22:08:05.812Z,2.70
2019-02-26T22:10:34.927Z,2.66
2019-02-26T22:13:04.152Z,2.67
2019-02-26T22:15:33.316Z,2.63
2019-02-26T22:18:02.427Z,2.67
2019-02-26T22:20:36.110Z,2.69
2019-02-26T22:23:01.152Z,2.62
2019-02-26T22:25:29.913Z,2.56
2019-02-26T22:27:59.036Z,2.57
2019-02-26T22:30:28.092Z,2.62
2019-02-26T22:32:57.832Z,2.57
2019-02-26T22:35:26.972Z,2.48
2019-02-26T22:37:55.901Z,2.48
2019-02-26T22:40:28.885Z,2.51
2019-02-26T22:42:54.643Z,2.57
2019-02-26T22:45:27.667Z,2.51
2019-02-26T22:47:52.810Z,2.50
2019-02-26T22:50:21.942Z,2.47
2019-02-26T22:52:51.432Z,2.52
2019-02-26T22:55:20.503Z,2.50
2019-02-26T22:57:49.645Z,2.47
2019-02-26T23:00:58.025Z,2.47
2019-02-26T23:03:27.057Z,2.47
2019-02-26T23:05:58.757Z,2.44
2019-02-26T23:08:25.311Z,2.52
2019-02-26T23:10:56.972Z,2.48
2019-02-26T23:13:23.798Z,2.46
2019-02-26T23:15:53.177Z,2.49
2019-02-26T23:18:22.478Z,2.47
2019-02-26T23:20:51.942Z,2.48
2019-02-26T23:23:21.962Z,2.49
2019-02-26T23:25:50.707Z,2.47
2019-02-26T23:28:21.875Z,2.46
2019-02-26T23:30:49.664Z,2.46
2019-02-26T23:33:19.107Z,2.48
2019-02-26T23:35:48.544Z,2.52
2019-02-26T23:38:17.739Z,2.57
2019-02-26T23:40:47.058Z,2.56
2019-02-26T23:43:16.218Z,2.60
2019-02-26T23:45:45.578Z,2.57
2019-02-26T23:48:14.713Z,2.54
2019-02-26T23:50:47.074Z,2.57
2019-02-26T23:53:12.946Z,2.46
2019-02-26T23:55:46.307Z,2.41
2019-02-26T23:58:12.508Z,2.45
